• Join FlightAware (Why Join?)
  • Login
  • US Flag 
04:09AM EST


 

Airport Tracker/Info


-or-


 

Live Flight TrackerFlight Track Log ✈ N577K ✈ 17-Aug-2013 ✈ 2G9 - KTHV

Flight Track Log - Related Links

Times and Time Zones

All times are in EDT time to prevent confusion due to time zone crossing. See the N577K flight status page for this flight to view local times or setup timezone preferences in your user account.

Time Position Orientation Groundspeed Altitude Reporting Facility
EDT Latitude Longitude Course Direction KTS MPH feet Rate Location/Type
02:51PM 40.0478 -78.9992 77° East 97 112 2,800  Level Cleveland Center
02:52PM 40.0517 -78.9775 77° East 102 117 3,300 720 Climbing Cleveland Center
02:53PM 40.0533 -78.9422 86° East 107 123 4,000 780 Climbing Cleveland Center
02:54PM 40.0486 -78.9017 99° East 107 123 4,900 780 Climbing Cleveland Center
02:55PM 40.0481 -78.8636 91° East 107 123 5,600 720 Climbing Cleveland Center
02:56PM 40.0453 -78.8258 95° East 107 123 6,400 660 Climbing Cleveland Center
02:57PM 40.0425 -78.7853 95° East 113 130 7,000 240 Climbing Cleveland Center
02:58PM 40.0397 -78.7311 94° East 150 173 7,000  Level Cleveland Center
02:59PM 40.0367 -78.6769 94° East 159 183 7,000  Level Cleveland Center
03:00PM 40.0317 -78.6228 97° East 157 181 7,000  Level Cleveland Center
03:01PM 40.0283 -78.5658 94° East 157 181 7,000  Level Cleveland Center
03:02PM 40.0272 -78.5036 91° East 157 181 7,000  Level Cleveland Center
03:03PM 40.0222 -78.4494 97° East 155 178 7,000  Level Cleveland Center
03:04PM 40.0192 -78.3953 94° East 155 178 7,000  Level Cleveland Center
03:05PM 40.0158 -78.3358 94° East 158 182 7,000  Level Cleveland Center
03:06PM 40.0125 -78.2764 94° East 155 178 7,000  Level Cleveland Center
03:07PM 40.0072 -78.2194 97° East 155 178 7,000  Level Cleveland Center
03:08PM 40.0061 -78.1653 92° East 155 178 7,000 -240 Level Cleveland Center
03:09PM 40.0278 -78.1131 62° Northeast 174 200 6,600 -480 Descending Cleveland Center
03:10PM 40.0472 -78.0500 68° East 178 205 6,100 -540 Descending Cleveland Center
03:12PM 40.0205 -77.9781 116° Southeast  Level FlightAware Approximate
03:19PM 39.9559 -77.6270 94° East  Level FlightAware Approximate
03:20PM 39.9532 -77.5767 94° East  Level FlightAware Approximate
03:21PM 39.9505 -77.5264 94° East  Level FlightAware Approximate
03:22PM 39.9478 -77.4761 94° East  Level FlightAware Approximate
03:23PM 39.9450 -77.4258 94° East  Level FlightAware Approximate
03:24PM 39.9422 -77.3755 94° East  Level FlightAware Approximate
03:25PM 39.9394 -77.3252 94° East  Level FlightAware Approximate
03:26PM 39.9366 -77.2749 94° East  Level FlightAware Approximate
03:27PM 39.9338 -77.2246 94° East  Level FlightAware Approximate
03:28PM 39.9333 -77.1742 90° East  Level FlightAware Approximate
03:29PM 39.9283 -77.1246 105° East  Level FlightAware Approximate
03:30PM 39.9185 -77.0759 105° East  Level FlightAware Approximate
03:31PM 39.9167 -77.0258 90° East  Level FlightAware Approximate
03:32PM 39.9167 -76.9754 90° East  Level FlightAware Approximate
03:33PM 39.9167 -76.9250 90° East  Level FlightAware Approximate
03:34PM 39.9167 -76.8746 90° East  Level FlightAware Approximate
03:35PM 39.9167 -76.8667 90° East  Level FlightAware Approximate
03:36PM 39.9170 -76.8730 90° East  Level Estimated
03:37PM 39.9167 -76.8667 90° East  Level FlightAware Approximate
03:38PM 39.9170 -76.8730 90° East  Level Estimated
03:39PM 39.9167 -76.8667 90° East  Level FlightAware Approximate